sensor_id;sensor_type;location;lat;lon;timestamp;P1;durP1;ratioP1;P2;durP2;ratioP2
43652;SDS011;29249;56.078;92.850;2022-07-10T00:00:15;6.97;;;6.25;;
43652;SDS011;29249;56.078;92.850;2022-07-10T00:02:41;6.97;;;6.28;;
43652;SDS011;29249;56.078;92.850;2022-07-10T00:05:08;8.88;;;6.38;;
43652;SDS011;29249;56.078;92.850;2022-07-10T00:07:35;7.80;;;6.70;;
43652;SDS011;29249;56.078;92.850;2022-07-10T00:10:02;5.88;;;5.28;;
43652;SDS011;29249;56.078;92.850;2022-07-10T00:12:29;6.80;;;6.10;;
43652;SDS011;29249;56.078;92.850;2022-07-10T00:14:55;7.75;;;6.75;;
43652;SDS011;29249;56.078;92.850;2022-07-10T00:17:21;9.80;;;6.20;;
43652;SDS011;29249;56.078;92.850;2022-07-10T00:19:47;6.80;;;6.18;;
43652;SDS011;29249;56.078;92.850;2022-07-10T00:22:13;6.72;;;6.07;;
43652;SDS011;29249;56.078;92.850;2022-07-10T00:24:38;8.68;;;6.70;;
43652;SDS011;29249;56.078;92.850;2022-07-10T00:27:04;7.72;;;6.20;;
43652;SDS011;29249;56.078;92.850;2022-07-10T00:29:30;7.82;;;6.72;;
43652;SDS011;29249;56.078;92.850;2022-07-10T00:31:56;9.35;;;6.90;;
43652;SDS011;29249;56.078;92.850;2022-07-10T00:34:22;7.93;;;6.00;;
43652;SDS011;29249;56.078;92.850;2022-07-10T00:36:48;8.35;;;5.95;;
43652;SDS011;29249;56.078;92.850;2022-07-10T00:39:13;11.45;;;5.78;;
43652;SDS011;29249;56.078;92.850;2022-07-10T00:41:39;7.88;;;6.57;;
43652;SDS011;29249;56.078;92.850;2022-07-10T00:44:05;6.10;;;5.55;;
43652;SDS011;29249;56.078;92.850;2022-07-10T00:46:31;7.30;;;6.38;;
43652;SDS011;29249;56.078;92.850;2022-07-10T00:48:57;9.18;;;6.07;;
43652;SDS011;29249;56.078;92.850;2022-07-10T00:51:24;6.60;;;5.82;;
43652;SDS011;29249;56.078;92.850;2022-07-10T00:53:51;6.38;;;5.78;;
43652;SDS011;29249;56.078;92.850;2022-07-10T00:56:19;6.03;;;5.43;;
43652;SDS011;29249;56.078;92.850;2022-07-10T00:58:46;6.65;;;5.13;;
43652;SDS011;29249;56.078;92.850;2022-07-10T01:01:13;7.05;;;6.45;;
43652;SDS011;29249;56.078;92.850;2022-07-10T01:03:39;7.35;;;6.13;;
43652;SDS011;29249;56.078;92.850;2022-07-10T01:06:05;8.50;;;6.53;;
43652;SDS011;29249;56.078;92.850;2022-07-10T01:08:32;6.15;;;5.47;;
43652;SDS011;29249;56.078;92.850;2022-07-10T01:10:58;6.53;;;5.93;;
43652;SDS011;29249;56.078;92.850;2022-07-10T01:13:25;5.57;;;5.07;;
43652;SDS011;29249;56.078;92.850;2022-07-10T01:15:52;6.55;;;4.90;;
43652;SDS011;29249;56.078;92.850;2022-07-10T01:18:18;6.43;;;5.82;;
43652;SDS011;29249;56.078;92.850;2022-07-10T01:20:44;5.47;;;4.95;;
43652;SDS011;29249;56.078;92.850;2022-07-10T01:23:10;5.63;;;5.13;;
43652;SDS011;29249;56.078;92.850;2022-07-10T01:25:36;5.93;;;5.32;;
43652;SDS011;29249;56.078;92.850;2022-07-10T01:28:02;7.22;;;5.30;;
43652;SDS011;29249;56.078;92.850;2022-07-10T01:30:28;5.40;;;4.90;;
43652;SDS011;29249;56.078;92.850;2022-07-10T01:32:54;13.45;;;6.43;;
43652;SDS011;29249;56.078;92.850;2022-07-10T01:35:20;5.78;;;5.20;;
43652;SDS011;29249;56.078;92.850;2022-07-10T01:37:46;6.68;;;5.88;;
43652;SDS011;29249;56.078;92.850;2022-07-10T01:40:12;6.75;;;6.15;;
43652;SDS011;29249;56.078;92.850;2022-07-10T01:42:38;6.50;;;5.90;;
43652;SDS011;29249;56.078;92.850;2022-07-10T01:45:05;6.13;;;5.63;;
43652;SDS011;29249;56.078;92.850;2022-07-10T01:47:32;11.27;;;5.88;;
43652;SDS011;29249;56.078;92.850;2022-07-10T01:49:58;7.53;;;6.72;;
43652;SDS011;29249;56.078;92.850;2022-07-10T01:52:24;8.50;;;7.03;;
43652;SDS011;29249;56.078;92.850;2022-07-10T01:54:50;8.02;;;7.20;;
43652;SDS011;29249;56.078;92.850;2022-07-10T01:57:16;8.15;;;6.00;;
43652;SDS011;29249;56.078;92.850;2022-07-10T01:59:42;9.07;;;5.78;;
43652;SDS011;29249;56.078;92.850;2022-07-10T02:02:08;9.10;;;6.60;;
43652;SDS011;29249;56.078;92.850;2022-07-10T02:04:34;7.72;;;6.68;;
43652;SDS011;29249;56.078;92.850;2022-07-10T02:07:00;6.85;;;6.25;;
43652;SDS011;29249;56.078;92.850;2022-07-10T02:09:26;7.10;;;6.25;;
43652;SDS011;29249;56.078;92.850;2022-07-10T02:11:52;7.78;;;6.00;;
43652;SDS011;29249;56.078;92.850;2022-07-10T02:14:17;7.20;;;6.50;;
43652;SDS011;29249;56.078;92.850;2022-07-10T02:16:43;6.70;;;6.00;;
43652;SDS011;29249;56.078;92.850;2022-07-10T02:19:09;7.57;;;6.88;;
43652;SDS011;29249;56.078;92.850;2022-07-10T02:21:35;6.63;;;6.03;;
43652;SDS011;29249;56.078;92.850;2022-07-10T02:24:01;7.38;;;6.63;;
43652;SDS011;29249;56.078;92.850;2022-07-10T02:26:27;8.15;;;7.13;;
43652;SDS011;29249;56.078;92.850;2022-07-10T02:28:52;7.28;;;6.25;;
43652;SDS011;29249;56.078;92.850;2022-07-10T02:31:18;9.73;;;6.97;;
43652;SDS011;29249;56.078;92.850;2022-07-10T02:33:44;7.50;;;6.80;;
43652;SDS011;29249;56.078;92.850;2022-07-10T02:36:10;8.70;;;7.88;;
43652;SDS011;29249;56.078;92.850;2022-07-10T02:38:36;8.18;;;7.35;;
43652;SDS011;29249;56.078;92.850;2022-07-10T02:41:02;8.02;;;6.97;;
43652;SDS011;29249;56.078;92.850;2022-07-10T02:43:27;8.77;;;7.72;;
43652;SDS011;29249;56.078;92.850;2022-07-10T02:45:53;8.55;;;6.97;;
43652;SDS011;29249;56.078;92.850;2022-07-10T02:48:19;8.23;;;6.55;;
43652;SDS011;29249;56.078;92.850;2022-07-10T02:50:45;7.40;;;6.70;;
43652;SDS011;29249;56.078;92.850;2022-07-10T02:53:11;7.35;;;6.70;;
43652;SDS011;29249;56.078;92.850;2022-07-10T02:55:36;9.60;;;7.30;;
43652;SDS011;29249;56.078;92.850;2022-07-10T02:58:02;9.90;;;7.68;;
43652;SDS011;29249;56.078;92.850;2022-07-10T03:00:28;7.20;;;6.60;;
43652;SDS011;29249;56.078;92.850;2022-07-10T03:02:55;7.68;;;6.97;;
43652;SDS011;29249;56.078;92.850;2022-07-10T03:05:21;7.40;;;6.70;;
43652;SDS011;29249;56.078;92.850;2022-07-10T03:07:47;8.23;;;7.50;;
43652;SDS011;29249;56.078;92.850;2022-07-10T03:10:13;9.50;;;6.95;;
43652;SDS011;29249;56.078;92.850;2022-07-10T03:12:40;7.45;;;6.82;;
43652;SDS011;29249;56.078;92.850;2022-07-10T03:15:06;8.65;;;7.45;;
43652;SDS011;29249;56.078;92.850;2022-07-10T03:17:32;7.50;;;6.63;;
43652;SDS011;29249;56.078;92.850;2022-07-10T03:19:58;6.63;;;5.97;;
43652;SDS011;29249;56.078;92.850;2022-07-10T03:22:24;6.60;;;6.10;;
43652;SDS011;29249;56.078;92.850;2022-07-10T03:24:49;6.93;;;6.22;;
43652;SDS011;29249;56.078;92.850;2022-07-10T03:27:15;7.40;;;6.70;;
43652;SDS011;29249;56.078;92.850;2022-07-10T03:29:41;7.43;;;6.72;;
43652;SDS011;29249;56.078;92.850;2022-07-10T03:32:07;8.43;;;7.07;;
43652;SDS011;29249;56.078;92.850;2022-07-10T03:34:33;6.95;;;6.35;;
43652;SDS011;29249;56.078;92.850;2022-07-10T03:36:59;9.52;;;6.88;;
43652;SDS011;29249;56.078;92.850;2022-07-10T03:39:26;8.13;;;7.28;;
43652;SDS011;29249;56.078;92.850;2022-07-10T03:41:52;8.48;;;6.80;;
43652;SDS011;29249;56.078;92.850;2022-07-10T03:44:17;8.68;;;7.15;;
43652;SDS011;29249;56.078;92.850;2022-07-10T03:46:43;7.63;;;6.93;;
43652;SDS011;29249;56.078;92.850;2022-07-10T03:49:13;9.90;;;8.25;;
43652;SDS011;29249;56.078;92.850;2022-07-10T03:51:39;7.00;;;6.40;;
43652;SDS011;29249;56.078;92.850;2022-07-10T03:54:05;7.10;;;6.50;;
43652;SDS011;29249;56.078;92.850;2022-07-10T03:56:32;7.72;;;7.03;;
43652;SDS011;29249;56.078;92.850;2022-07-10T03:58:58;6.90;;;6.30;;
43652;SDS011;29249;56.078;92.850;2022-07-10T04:01:24;7.15;;;6.40;;
43652;SDS011;29249;56.078;92.850;2022-07-10T04:03:49;6.45;;;5.55;;
43652;SDS011;29249;56.078;92.850;2022-07-10T04:06:15;6.40;;;5.78;;
43652;SDS011;29249;56.078;92.850;2022-07-10T04:08:41;6.50;;;5.30;;
43652;SDS011;29249;56.078;92.850;2022-07-10T04:11:07;5.95;;;5.45;;
43652;SDS011;29249;56.078;92.850;2022-07-10T04:13:33;5.97;;;5.47;;
43652;SDS011;29249;56.078;92.850;2022-07-10T04:15:58;7.03;;;5.10;;
43652;SDS011;29249;56.078;92.850;2022-07-10T04:18:24;6.28;;;5.68;;
43652;SDS011;29249;56.078;92.850;2022-07-10T04:20:50;6.28;;;5.70;;
43652;SDS011;29249;56.078;92.850;2022-07-10T04:23:16;7.93;;;6.50;;
43652;SDS011;29249;56.078;92.850;2022-07-10T04:25:42;7.22;;;6.55;;
43652;SDS011;29249;56.078;92.850;2022-07-10T04:28:07;6.57;;;5.95;;
43652;SDS011;29249;56.078;92.850;2022-07-10T04:30:33;6.25;;;5.65;;
43652;SDS011;29249;56.078;92.850;2022-07-10T04:32:59;5.88;;;5.28;;
43652;SDS011;29249;56.078;92.850;2022-07-10T04:35:25;12.43;;;7.32;;
43652;SDS011;29249;56.078;92.850;2022-07-10T04:37:51;7.90;;;6.00;;
43652;SDS011;29249;56.078;92.850;2022-07-10T04:40:16;6.68;;;5.80;;
43652;SDS011;29249;56.078;92.850;2022-07-10T04:42:43;6.82;;;5.88;;
43652;SDS011;29249;56.078;92.850;2022-07-10T04:45:08;6.30;;;5.65;;
43652;SDS011;29249;56.078;92.850;2022-07-10T04:47:35;4.88;;;4.47;;
43652;SDS011;29249;56.078;92.850;2022-07-10T04:50:00;6.53;;;5.40;;
43652;SDS011;29249;56.078;92.850;2022-07-10T04:52:26;5.93;;;5.43;;
43652;SDS011;29249;56.078;92.850;2022-07-10T04:54:52;5.90;;;5.10;;
43652;SDS011;29249;56.078;92.850;2022-07-10T04:57:18;5.63;;;4.10;;
43652;SDS011;29249;56.078;92.850;2022-07-10T04:59:44;6.00;;;5.45;;
43652;SDS011;29249;56.078;92.850;2022-07-10T05:02:09;6.57;;;5.88;;
43652;SDS011;29249;56.078;92.850;2022-07-10T05:04:35;6.03;;;5.32;;
43652;SDS011;29249;56.078;92.850;2022-07-10T05:07:01;5.90;;;4.82;;
43652;SDS011;29249;56.078;92.850;2022-07-10T05:09:42;5.60;;;4.72;;
43652;SDS011;29249;56.078;92.850;2022-07-10T05:12:40;5.82;;;4.80;;
43652;SDS011;29249;56.078;92.850;2022-07-10T05:15:06;7.20;;;5.22;;
43652;SDS011;29249;56.078;92.850;2022-07-10T05:17:32;5.30;;;4.90;;
43652;SDS011;29249;56.078;92.850;2022-07-10T05:19:58;6.15;;;4.75;;
43652;SDS011;29249;56.078;92.850;2022-07-10T05:22:24;6.78;;;5.20;;
43652;SDS011;29249;56.078;92.850;2022-07-10T05:24:50;5.38;;;4.97;;
43652;SDS011;29249;56.078;92.850;2022-07-10T05:27:16;6.43;;;4.95;;
43652;SDS011;29249;56.078;92.850;2022-07-10T05:29:42;7.15;;;5.53;;
43652;SDS011;29249;56.078;92.850;2022-07-10T05:32:08;6.57;;;4.90;;
43652;SDS011;29249;56.078;92.850;2022-07-10T05:34:35;5.22;;;4.72;;
43652;SDS011;29249;56.078;92.850;2022-07-10T05:37:01;8.82;;;4.75;;
43652;SDS011;29249;56.078;92.850;2022-07-10T05:39:26;9.05;;;4.68;;
43652;SDS011;29249;56.078;92.850;2022-07-10T05:41:54;4.68;;;4.28;;
43652;SDS011;29249;56.078;92.850;2022-07-10T05:44:20;5.25;;;4.75;;
43652;SDS011;29249;56.078;92.850;2022-07-10T05:46:46;4.45;;;4.05;;
43652;SDS011;29249;56.078;92.850;2022-07-10T05:49:12;6.30;;;4.68;;
43652;SDS011;29249;56.078;92.850;2022-07-10T05:51:37;5.15;;;4.70;;
43652;SDS011;29249;56.078;92.850;2022-07-10T05:54:03;7.53;;;5.15;;
43652;SDS011;29249;56.078;92.850;2022-07-10T05:56:29;6.80;;;5.47;;
43652;SDS011;29249;56.078;92.850;2022-07-10T05:58:57;6.40;;;5.63;;
43652;SDS011;29249;56.078;92.850;2022-07-10T06:01:23;7.70;;;6.25;;
43652;SDS011;29249;56.078;92.850;2022-07-10T06:03:49;6.72;;;5.82;;
43652;SDS011;29249;56.078;92.850;2022-07-10T06:06:15;15.00;;;8.15;;
43652;SDS011;29249;56.078;92.850;2022-07-10T06:08:41;8.77;;;7.88;;
43652;SDS011;29249;56.078;92.850;2022-07-10T06:11:08;10.07;;;9.18;;
43652;SDS011;29249;56.078;92.850;2022-07-10T06:13:33;11.27;;;10.18;;
43652;SDS011;29249;56.078;92.850;2022-07-10T06:16:00;12.38;;;9.68;;
43652;SDS011;29249;56.078;92.850;2022-07-10T06:18:26;6.28;;;5.68;;
43652;SDS011;29249;56.078;92.850;2022-07-10T06:20:52;5.93;;;5.32;;
43652;SDS011;29249;56.078;92.850;2022-07-10T06:23:19;7.03;;;5.82;;
43652;SDS011;29249;56.078;92.850;2022-07-10T06:25:45;7.22;;;6.00;;
43652;SDS011;29249;56.078;92.850;2022-07-10T06:28:11;6.43;;;5.22;;
43652;SDS011;29249;56.078;92.850;2022-07-10T06:30:36;6.90;;;6.25;;
43652;SDS011;29249;56.078;92.850;2022-07-10T06:33:02;7.80;;;6.68;;
43652;SDS011;29249;56.078;92.850;2022-07-10T06:35:28;7.32;;;6.63;;
43652;SDS011;29249;56.078;92.850;2022-07-10T06:37:54;7.65;;;5.97;;
43652;SDS011;29249;56.078;92.850;2022-07-10T06:40:20;7.15;;;5.97;;
43652;SDS011;29249;56.078;92.850;2022-07-10T06:42:46;7.40;;;6.70;;
43652;SDS011;29249;56.078;92.850;2022-07-10T06:45:12;7.88;;;6.45;;
43652;SDS011;29249;56.078;92.850;2022-07-10T06:47:38;10.13;;;6.95;;
43652;SDS011;29249;56.078;92.850;2022-07-10T06:50:05;6.45;;;5.85;;
43652;SDS011;29249;56.078;92.850;2022-07-10T06:52:33;6.88;;;6.28;;
43652;SDS011;29249;56.078;92.850;2022-07-10T06:55:00;6.18;;;5.43;;
43652;SDS011;29249;56.078;92.850;2022-07-10T06:57:27;5.72;;;5.22;;
43652;SDS011;29249;56.078;92.850;2022-07-10T06:59:53;6.88;;;5.80;;
43652;SDS011;29249;56.078;92.850;2022-07-10T07:02:18;5.75;;;5.25;;
43652;SDS011;29249;56.078;92.850;2022-07-10T07:04:44;6.28;;;5.68;;
43652;SDS011;29249;56.078;92.850;2022-07-10T07:07:10;7.10;;;6.40;;
43652;SDS011;29249;56.078;92.850;2022-07-10T07:09:36;4.38;;;4.07;;
43652;SDS011;29249;56.078;92.850;2022-07-10T07:12:02;6.68;;;4.70;;
43652;SDS011;29249;56.078;92.850;2022-07-10T07:14:28;5.80;;;4.00;;
43652;SDS011;29249;56.078;92.850;2022-07-10T07:16:54;4.68;;;4.18;;
43652;SDS011;29249;56.078;92.850;2022-07-10T07:19:20;5.28;;;4.30;;
43652;SDS011;29249;56.078;92.850;2022-07-10T07:21:46;6.50;;;4.32;;
43652;SDS011;29249;56.078;92.850;2022-07-10T07:24:14;7.25;;;4.00;;
43652;SDS011;29249;56.078;92.850;2022-07-10T07:27:00;12.65;;;5.05;;
43652;SDS011;29249;56.078;92.850;2022-07-10T07:29:26;6.05;;;4.32;;
43652;SDS011;29249;56.078;92.850;2022-07-10T07:31:52;5.13;;;4.47;;
43652;SDS011;29249;56.078;92.850;2022-07-10T07:34:18;4.32;;;3.92;;
43652;SDS011;29249;56.078;92.850;2022-07-10T07:36:44;7.28;;;4.57;;
43652;SDS011;29249;56.078;92.850;2022-07-10T07:39:09;7.30;;;3.85;;
43652;SDS011;29249;56.078;92.850;2022-07-10T07:41:35;4.60;;;4.15;;
43652;SDS011;29249;56.078;92.850;2022-07-10T07:44:01;4.70;;;4.22;;
43652;SDS011;29249;56.078;92.850;2022-07-10T07:46:27;4.15;;;3.53;;
43652;SDS011;29249;56.078;92.850;2022-07-10T07:48:53;4.50;;;4.10;;
43652;SDS011;29249;56.078;92.850;2022-07-10T07:51:18;3.95;;;3.55;;
43652;SDS011;29249;56.078;92.850;2022-07-10T07:53:44;4.22;;;3.67;;
43652;SDS011;29249;56.078;92.850;2022-07-10T07:56:10;4.28;;;3.88;;
43652;SDS011;29249;56.078;92.850;2022-07-10T07:58:36;5.57;;;4.63;;
43652;SDS011;29249;56.078;92.850;2022-07-10T08:01:01;4.75;;;3.45;;
43652;SDS011;29249;56.078;92.850;2022-07-10T08:03:27;4.43;;;4.03;;
43652;SDS011;29249;56.078;92.850;2022-07-10T08:05:53;3.90;;;3.58;;
43652;SDS011;29249;56.078;92.850;2022-07-10T08:08:19;3.67;;;3.38;;
43652;SDS011;29249;56.078;92.850;2022-07-10T08:10:45;4.93;;;4.10;;
43652;SDS011;29249;56.078;92.850;2022-07-10T08:13:11;3.90;;;3.60;;
43652;SDS011;29249;56.078;92.850;2022-07-10T08:15:36;5.25;;;3.72;;
43652;SDS011;29249;56.078;92.850;2022-07-10T08:18:02;8.40;;;3.15;;
43652;SDS011;29249;56.078;92.850;2022-07-10T08:20:28;4.38;;;3.30;;
43652;SDS011;29249;56.078;92.850;2022-07-10T08:22:54;2.97;;;2.78;;
43652;SDS011;29249;56.078;92.850;2022-07-10T08:25:20;6.20;;;3.15;;
43652;SDS011;29249;56.078;92.850;2022-07-10T08:27:46;3.75;;;3.45;;
43652;SDS011;29249;56.078;92.850;2022-07-10T08:30:13;3.80;;;3.47;;
43652;SDS011;29249;56.078;92.850;2022-07-10T08:32:39;4.20;;;3.80;;
43652;SDS011;29249;56.078;92.850;2022-07-10T08:35:06;4.47;;;3.50;;
43652;SDS011;29249;56.078;92.850;2022-07-10T08:37:42;3.20;;;2.90;;
43652;SDS011;29249;56.078;92.850;2022-07-10T08:40:10;3.80;;;3.50;;
43652;SDS011;29249;56.078;92.850;2022-07-10T08:42:38;3.15;;;2.85;;
43652;SDS011;29249;56.078;92.850;2022-07-10T08:45:07;4.35;;;3.33;;
43652;SDS011;29249;56.078;92.850;2022-07-10T08:47:34;4.60;;;3.65;;
43652;SDS011;29249;56.078;92.850;2022-07-10T08:50:05;6.38;;;3.83;;
43652;SDS011;29249;56.078;92.850;2022-07-10T08:52:53;4.07;;;3.40;;
43652;SDS011;29249;56.078;92.850;2022-07-10T08:55:27;3.30;;;3.00;;
43652;SDS011;29249;56.078;92.850;2022-07-10T08:57:54;3.55;;;2.83;;
43652;SDS011;29249;56.078;92.850;2022-07-10T09:00:20;5.38;;;3.47;;
43652;SDS011;29249;56.078;92.850;2022-07-10T09:02:46;4.97;;;3.65;;
43652;SDS011;29249;56.078;92.850;2022-07-10T09:05:12;5.10;;;4.13;;
43652;SDS011;29249;56.078;92.850;2022-07-10T09:07:38;3.92;;;3.40;;
43652;SDS011;29249;56.078;92.850;2022-07-10T09:10:05;4.00;;;3.15;;
43652;SDS011;29249;56.078;92.850;2022-07-10T09:12:48;5.72;;;5.10;;
43652;SDS011;29249;56.078;92.850;2022-07-10T09:15:18;4.33;;;3.93;;
43652;SDS011;29249;56.078;92.850;2022-07-10T09:17:55;12.80;;;5.25;;
43652;SDS011;29249;56.078;92.850;2022-07-10T09:20:35;4.72;;;4.28;;
43652;SDS011;29249;56.078;92.850;2022-07-10T09:23:14;4.30;;;3.90;;
43652;SDS011;29249;56.078;92.850;2022-07-10T09:25:48;4.30;;;3.85;;
43652;SDS011;29249;56.078;92.850;2022-07-10T09:28:18;9.23;;;3.28;;
43652;SDS011;29249;56.078;92.850;2022-07-10T09:30:46;7.05;;;3.78;;
43652;SDS011;29249;56.078;92.850;2022-07-10T09:33:19;5.57;;;3.47;;
43652;SDS011;29249;56.078;92.850;2022-07-10T09:35:55;7.05;;;3.63;;
43652;SDS011;29249;56.078;92.850;2022-07-10T09:41:11;9.80;;;4.05;;
43652;SDS011;29249;56.078;92.850;2022-07-10T09:46:09;14.43;;;4.43;;
43652;SDS011;29249;56.078;92.850;2022-07-10T09:48:36;7.43;;;4.60;;
43652;SDS011;29249;56.078;92.850;2022-07-10T09:51:01;8.60;;;4.15;;
43652;SDS011;29249;56.078;92.850;2022-07-10T09:53:27;6.40;;;4.38;;
43652;SDS011;29249;56.078;92.850;2022-07-10T09:55:53;5.10;;;4.55;;
43652;SDS011;29249;56.078;92.850;2022-07-10T09:58:21;6.18;;;4.30;;
43652;SDS011;29249;56.078;92.850;2022-07-10T10:00:55;8.57;;;4.63;;
43652;SDS011;29249;56.078;92.850;2022-07-10T10:03:23;5.97;;;4.05;;
43652;SDS011;29249;56.078;92.850;2022-07-10T10:05:54;5.57;;;3.65;;
43652;SDS011;29249;56.078;92.850;2022-07-10T10:11:21;7.43;;;4.47;;
43652;SDS011;29249;56.078;92.850;2022-07-10T10:13:51;6.45;;;4.13;;
43652;SDS011;29249;56.078;92.850;2022-07-10T10:16:44;12.25;;;5.07;;
43652;SDS011;29249;56.078;92.850;2022-07-10T10:19:12;6.50;;;4.22;;
43652;SDS011;29249;56.078;92.850;2022-07-10T10:21:40;5.50;;;4.65;;
43652;SDS011;29249;56.078;92.850;2022-07-10T10:24:06;4.97;;;4.47;;
43652;SDS011;29249;56.078;92.850;2022-07-10T10:26:32;8.07;;;4.32;;
43652;SDS011;29249;56.078;92.850;2022-07-10T10:29:01;6.25;;;4.05;;
43652;SDS011;29249;56.078;92.850;2022-07-10T10:31:29;7.63;;;5.13;;
43652;SDS011;29249;56.078;92.850;2022-07-10T10:33:57;5.60;;;4.65;;
43652;SDS011;29249;56.078;92.850;2022-07-10T10:37:05;5.43;;;4.25;;
43652;SDS011;29249;56.078;92.850;2022-07-10T10:39:13;9.48;;;5.05;;
43652;SDS011;29249;56.078;92.850;2022-07-10T10:41:44;7.00;;;5.03;;
43652;SDS011;29249;56.078;92.850;2022-07-10T10:44:19;7.63;;;4.63;;
43652;SDS011;29249;56.078;92.850;2022-07-10T10:49:16;7.00;;;5.22;;
43652;SDS011;29249;56.078;92.850;2022-07-10T10:54:22;7.30;;;4.63;;
43652;SDS011;29249;56.078;92.850;2022-07-10T10:59:53;6.70;;;4.95;;
43652;SDS011;29249;56.078;92.850;2022-07-10T11:02:29;13.35;;;5.70;;
43652;SDS011;29249;56.078;92.850;2022-07-10T11:10:26;20.58;;;6.80;;
43652;SDS011;29249;56.078;92.850;2022-07-10T11:15:26;10.27;;;7.22;;
43652;SDS011;29249;56.078;92.850;2022-07-10T11:17:53;9.07;;;5.53;;
43652;SDS011;29249;56.078;92.850;2022-07-10T11:20:19;11.38;;;6.32;;
43652;SDS011;29249;56.078;92.850;2022-07-10T11:22:52;9.15;;;5.72;;
43652;SDS011;29249;56.078;92.850;2022-07-10T11:25:54;7.90;;;5.63;;
43652;SDS011;29249;56.078;92.850;2022-07-10T11:29:09;5.78;;;5.10;;
43652;SDS011;29249;56.078;92.850;2022-07-10T11:31:21;7.80;;;5.05;;
43652;SDS011;29249;56.078;92.850;2022-07-10T11:33:50;26.98;;;14.35;;
43652;SDS011;29249;56.078;92.850;2022-07-10T11:36:18;14.63;;;10.63;;
43652;SDS011;29249;56.078;92.850;2022-07-10T11:38:55;15.98;;;10.82;;
43652;SDS011;29249;56.078;92.850;2022-07-10T11:41:28;9.40;;;6.55;;
43652;SDS011;29249;56.078;92.850;2022-07-10T11:46:23;9.43;;;7.60;;
43652;SDS011;29249;56.078;92.850;2022-07-10T11:48:50;9.80;;;7.57;;
43652;SDS011;29249;56.078;92.850;2022-07-10T11:51:17;8.13;;;6.80;;
43652;SDS011;29249;56.078;92.850;2022-07-10T11:53:57;15.63;;;12.00;;
43652;SDS011;29249;56.078;92.850;2022-07-10T11:56:24;12.00;;;10.57;;
43652;SDS011;29249;56.078;92.850;2022-07-10T11:59:09;10.98;;;8.85;;
43652;SDS011;29249;56.078;92.850;2022-07-10T12:01:49;13.48;;;9.90;;
43652;SDS011;29249;56.078;92.850;2022-07-10T12:04:17;9.57;;;8.50;;
43652;SDS011;29249;56.078;92.850;2022-07-10T12:06:46;12.45;;;8.40;;
43652;SDS011;29249;56.078;92.850;2022-07-10T12:09:13;11.00;;;9.65;;
43652;SDS011;29249;56.078;92.850;2022-07-10T12:11:44;12.73;;;10.00;;
43652;SDS011;29249;56.078;92.850;2022-07-10T12:14:23;15.70;;;9.90;;
43652;SDS011;29249;56.078;92.850;2022-07-10T12:16:51;18.80;;;10.30;;
43652;SDS011;29249;56.078;92.850;2022-07-10T12:19:19;14.95;;;9.77;;
43652;SDS011;29249;56.078;92.850;2022-07-10T12:21:47;9.32;;;8.10;;
43652;SDS011;29249;56.078;92.850;2022-07-10T12:24:18;7.57;;;6.05;;
43652;SDS011;29249;56.078;92.850;2022-07-10T12:26:44;8.75;;;5.72;;
43652;SDS011;29249;56.078;92.850;2022-07-10T12:29:11;9.23;;;6.15;;
43652;SDS011;29249;56.078;92.850;2022-07-10T12:31:49;12.35;;;5.90;;
43652;SDS011;29249;56.078;92.850;2022-07-10T12:34:32;8.32;;;6.45;;
43652;SDS011;29249;56.078;92.850;2022-07-10T12:37:49;6.82;;;6.05;;
43652;SDS011;29249;56.078;92.850;2022-07-10T12:40:35;7.82;;;6.30;;
43652;SDS011;29249;56.078;92.850;2022-07-10T12:43:23;12.40;;;6.43;;
43652;SDS011;29249;56.078;92.850;2022-07-10T12:49:05;13.30;;;7.60;;
43652;SDS011;29249;56.078;92.850;2022-07-10T12:51:51;8.90;;;7.65;;
43652;SDS011;29249;56.078;92.850;2022-07-10T12:54:32;10.15;;;6.65;;
43652;SDS011;29249;56.078;92.850;2022-07-10T12:56:59;12.73;;;7.28;;
43652;SDS011;29249;56.078;92.850;2022-07-10T12:59:27;11.40;;;7.10;;
43652;SDS011;29249;56.078;92.850;2022-07-10T13:01:53;10.48;;;8.35;;
43652;SDS011;29249;56.078;92.850;2022-07-10T13:04:26;10.32;;;7.60;;
43652;SDS011;29249;56.078;92.850;2022-07-10T13:06:52;11.77;;;8.25;;
43652;SDS011;29249;56.078;92.850;2022-07-10T13:09:19;11.63;;;8.68;;
43652;SDS011;29249;56.078;92.850;2022-07-10T13:11:49;17.48;;;10.27;;
43652;SDS011;29249;56.078;92.850;2022-07-10T13:14:16;17.50;;;10.93;;
43652;SDS011;29249;56.078;92.850;2022-07-10T13:16:41;19.83;;;10.38;;
43652;SDS011;29249;56.078;92.850;2022-07-10T13:19:07;14.52;;;10.30;;
43652;SDS011;29249;56.078;92.850;2022-07-10T13:21:33;20.00;;;10.75;;
43652;SDS011;29249;56.078;92.850;2022-07-10T13:23:59;17.42;;;10.07;;
43652;SDS011;29249;56.078;92.850;2022-07-10T13:26:25;23.65;;;10.15;;
43652;SDS011;29249;56.078;92.850;2022-07-10T13:28:52;25.30;;;9.07;;
43652;SDS011;29249;56.078;92.850;2022-07-10T13:31:18;15.27;;;10.75;;
43652;SDS011;29249;56.078;92.850;2022-07-10T13:33:44;19.63;;;9.15;;
43652;SDS011;29249;56.078;92.850;2022-07-10T13:36:11;16.20;;;9.07;;
43652;SDS011;29249;56.078;92.850;2022-07-10T13:38:38;28.00;;;10.68;;
43652;SDS011;29249;56.078;92.850;2022-07-10T13:41:05;24.58;;;11.45;;
43652;SDS011;29249;56.078;92.850;2022-07-10T13:43:31;14.05;;;10.02;;
43652;SDS011;29249;56.078;92.850;2022-07-10T13:45:57;17.10;;;11.88;;
43652;SDS011;29249;56.078;92.850;2022-07-10T13:48:25;19.35;;;9.88;;
43652;SDS011;29249;56.078;92.850;2022-07-10T13:50:52;17.58;;;10.88;;
43652;SDS011;29249;56.078;92.850;2022-07-10T13:53:19;21.05;;;11.30;;
43652;SDS011;29249;56.078;92.850;2022-07-10T13:55:46;17.17;;;12.02;;
43652;SDS011;29249;56.078;92.850;2022-07-10T13:58:12;13.85;;;11.18;;
43652;SDS011;29249;56.078;92.850;2022-07-10T14:00:38;14.05;;;10.98;;
43652;SDS011;29249;56.078;92.850;2022-07-10T14:03:04;15.68;;;11.82;;
43652;SDS011;29249;56.078;92.850;2022-07-10T14:05:30;16.85;;;11.98;;
43652;SDS011;29249;56.078;92.850;2022-07-10T14:07:58;15.43;;;11.95;;
43652;SDS011;29249;56.078;92.850;2022-07-10T14:10:24;19.35;;;12.10;;
43652;SDS011;29249;56.078;92.850;2022-07-10T14:12:53;26.60;;;13.90;;
43652;SDS011;29249;56.078;92.850;2022-07-10T14:15:19;27.15;;;18.17;;
43652;SDS011;29249;56.078;92.850;2022-07-10T14:17:46;32.28;;;17.00;;
43652;SDS011;29249;56.078;92.850;2022-07-10T14:20:13;22.25;;;16.80;;
43652;SDS011;29249;56.078;92.850;2022-07-10T14:22:38;28.38;;;16.92;;
43652;SDS011;29249;56.078;92.850;2022-07-10T14:25:05;36.33;;;17.52;;
43652;SDS011;29249;56.078;92.850;2022-07-10T14:27:31;25.85;;;16.00;;
43652;SDS011;29249;56.078;92.850;2022-07-10T14:29:58;34.05;;;16.88;;
43652;SDS011;29249;56.078;92.850;2022-07-10T14:32:24;26.88;;;16.15;;
43652;SDS011;29249;56.078;92.850;2022-07-10T14:34:50;28.02;;;15.98;;
43652;SDS011;29249;56.078;92.850;2022-07-10T14:37:16;36.30;;;15.27;;
43652;SDS011;29249;56.078;92.850;2022-07-10T14:39:43;29.90;;;12.82;;
43652;SDS011;29249;56.078;92.850;2022-07-10T14:42:09;37.65;;;12.82;;
43652;SDS011;29249;56.078;92.850;2022-07-10T14:44:35;67.57;;;14.02;;
43652;SDS011;29249;56.078;92.850;2022-07-10T14:47:02;50.47;;;14.40;;
43652;SDS011;29249;56.078;92.850;2022-07-10T14:49:30;55.10;;;15.93;;
43652;SDS011;29249;56.078;92.850;2022-07-10T14:51:56;59.70;;;16.38;;
43652;SDS011;29249;56.078;92.850;2022-07-10T14:54:22;71.35;;;15.48;;
43652;SDS011;29249;56.078;92.850;2022-07-10T14:56:48;56.03;;;15.68;;
43652;SDS011;29249;56.078;92.850;2022-07-10T14:59:14;32.80;;;14.00;;
43652;SDS011;29249;56.078;92.850;2022-07-10T15:01:40;41.22;;;15.90;;